Time;durP1;ratioP1;P1;durP2;ratioP2;P2;SDS_P1;SDS_P2;PMS_P1;PMS_P2;Temp;Humidity;BMP_temperature;BMP_pressure;BME280_temperature;BME280_humidity;BME280_pressure;Samples;Min_cycle;Max_cycle;Signal;HPM_P1;HPM_P2
2022/02/05 00:00:46;;;;;;;9.13;1.65;;;15.10;69.20;;;;;;4176160;28;20111;-60
2022/02/05 00:03:16;;;;;;;6.05;1.30;;;15.20;69.10;;;;;;4159851;28;20048;-61
2022/02/05 00:05:45;;;;;;;8.98;1.70;;;15.30;68.70;;;;;;4159793;28;20049;-61
2022/02/05 00:08:20;;;;;;;11.25;2.65;;;15.30;68.60;;;;;;4159636;28;20045;-60
2022/02/05 00:13:42;;;;;;;10.45;1.70;;;15.30;68.30;;;;;;4159786;28;20046;-60
2022/02/05 00:19:59;;;;;;;5.85;1.27;;;15.30;68.30;;;;;;4159718;28;20157;-61
2022/02/05 00:40:30;;;;;;;9.00;1.90;;;15.20;69.00;;;;;;4175793;28;20102;-61
2022/02/05 00:42:53;;;;;;;9.60;1.83;;;15.30;68.90;;;;;;4160796;28;20452;-60
2022/02/05 00:45:16;;;;;;;10.80;2.15;;;15.30;68.60;;;;;;4175771;28;20099;-61
2022/02/05 00:47:43;;;;;;;6.65;2.20;;;15.40;68.10;;;;;;4176063;28;20049;-61
2022/02/05 00:50:11;;;;;;;11.75;3.30;;;15.40;67.90;;;;;;4175461;28;20524;-61
2022/02/05 00:52:33;;;;;;;10.57;2.33;;;15.50;67.80;;;;;;4160217;28;20156;-61
2022/02/05 00:55:03;;;;;;;3.63;1.63;;;15.50;67.80;;;;;;4174973;28;20059;-61
2022/02/05 01:00:06;;;;;;;15.13;2.13;;;15.50;67.90;;;;;;4175723;28;20044;-61
2022/02/05 01:02:29;;;;;;;8.45;2.13;;;15.50;68.00;;;;;;4175580;28;20559;-61
2022/02/05 01:04:51;;;;;;;9.85;2.22;;;15.50;68.60;;;;;;4175863;28;20072;-61
2022/02/05 01:07:14;;;;;;;7.95;1.52;;;15.50;67.70;;;;;;4174848;28;20045;-61
2022/02/05 01:09:36;;;;;;;8.57;1.77;;;15.50;67.60;;;;;;4175840;28;20098;-61
2022/02/05 01:12:01;;;;;;;13.52;2.40;;;15.50;67.70;;;;;;4175422;28;20067;-61
2022/02/05 01:14:28;;;;;;;12.57;2.40;;;15.50;67.70;;;;;;4176098;28;20381;-61
2022/02/05 01:16:55;;;;;;;10.77;2.03;;;15.50;67.70;;;;;;4175268;28;20512;-61
2022/02/05 01:19:42;;;;;;;9.65;2.20;;;15.50;67.80;;;;;;4175717;28;20079;-61
2022/02/05 01:22:06;;;;;;;14.50;2.65;;;15.50;67.70;;;;;;4175096;28;20076;-61
2022/02/05 01:24:29;;;;;;;7.40;1.90;;;15.50;67.80;;;;;;4173804;28;20049;-61
2022/02/05 01:26:57;;;;;;;7.55;2.10;;;15.50;67.80;;;;;;4175842;28;20111;-61
2022/02/05 01:29:28;;;;;;;9.77;2.55;;;15.50;67.90;;;;;;4175085;28;20140;-61
2022/02/05 01:31:55;;;;;;;18.48;2.65;;;15.40;68.20;;;;;;4174986;28;20063;-60
2022/02/05 01:34:25;;;;;;;7.32;1.95;;;15.50;68.40;;;;;;4175400;28;20752;-61
2022/02/05 01:50:23;;;;;;;6.90;2.10;;;15.80;66.60;;;;;;4175403;28;20045;-61
2022/02/05 01:53:05;;;;;;;10.65;2.60;;;15.80;66.60;;;;;;4174817;28;20572;-61
2022/02/05 01:55:36;;;;;;;;;;;15.80;66.60;;;;;;4175444;28;20041;-61
2022/02/05 01:58:13;;;;;;;10.60;2.17;;;15.80;66.70;;;;;;4175045;28;19922;-61
2022/02/05 02:06:10;;;;;;;11.23;2.38;;;15.70;67.20;;;;;;4175719;28;20055;-61
2022/02/05 02:11:32;;;;;;;11.27;1.90;;;15.60;67.80;;;;;;4161651;28;20088;-61
2022/02/05 02:16:55;;;;;;;22.02;3.13;;;15.50;67.80;;;;;;4177750;28;20496;-62
2022/02/05 02:19:27;;;;;;;14.18;2.35;;;15.50;67.90;;;;;;4177874;28;20507;-65
2022/02/05 02:21:56;;;;;;;9.35;2.45;;;15.50;68.10;;;;;;4162417;28;20485;-63
2022/02/05 02:24:26;;;;;;;14.35;2.38;;;15.60;68.10;;;;;;4161123;28;20056;-65
2022/02/05 02:27:03;;;;;;;9.77;2.75;;;15.60;67.90;;;;;;4161347;28;20056;-63
2022/02/05 02:29:35;;;;;;;12.35;2.30;;;15.60;67.70;;;;;;4177035;28;20041;-61
2022/02/05 02:31:58;;;;;;;14.68;2.92;;;15.60;67.80;;;;;;4177508;28;20052;-61
2022/02/05 02:34:24;;;;;;;11.45;2.42;;;15.70;67.60;;;;;;4177905;28;20056;-61
2022/02/05 02:36:51;;;;;;;13.52;2.67;;;15.60;67.60;;;;;;4177848;28;20049;-62
2022/02/05 02:39:18;;;;;;;15.00;3.00;;;15.60;67.70;;;;;;4177683;28;20060;-61
2022/02/05 02:41:46;;;;;;;10.88;2.35;;;15.60;67.90;;;;;;4161170;28;20049;-62
2022/02/05 02:44:08;;;;;;;9.60;2.63;;;15.60;68.00;;;;;;4177807;28;20098;-62
2022/02/05 02:46:30;;;;;;;12.48;2.63;;;15.50;68.00;;;;;;4177885;28;20103;-61
2022/02/05 02:48:53;;;;;;;11.65;2.30;;;15.60;68.20;;;;;;4161436;28;20053;-61
2022/02/05 02:56:51;;;;;;;11.07;2.40;;;15.60;68.10;;;;;;4176610;28;20048;-61
2022/02/05 02:59:24;;;;;;;11.40;2.50;;;15.70;68.00;;;;;;4177678;28;20076;-61
2022/02/05 03:01:47;;;;;;;17.67;2.47;;;15.70;67.90;;;;;;4177157;28;20955;-59
2022/02/05 03:04:09;;;;;;;11.93;3.28;;;15.70;67.90;;;;;;4177383;28;20048;-61
2022/02/05 03:06:31;;;;;;;11.13;2.25;;;15.70;67.80;;;;;;4177630;28;20133;-62
2022/02/05 03:08:53;;;;;;;14.00;2.40;;;15.70;67.80;;;;;;4177225;28;20392;-61
2022/02/05 03:11:19;;;;;;;10.07;2.40;;;15.80;67.90;;;;;;4177344;28;20057;-61
2022/02/05 03:13:42;;;;;;;8.63;1.73;;;15.90;67.60;;;;;;4177018;28;20079;-61
2022/02/05 03:16:07;;;;;;;8.23;2.38;;;16.00;67.00;;;;;;4177135;28;20135;-61
2022/02/05 03:18:33;;;;;;;15.43;2.47;;;16.10;66.40;;;;;;4177308;28;20115;-61
2022/02/05 03:20:55;;;;;;;10.52;2.33;;;16.20;66.10;;;;;;4160809;28;20092;-60
2022/02/05 03:23:17;;;;;;;11.13;2.70;;;16.20;65.80;;;;;;4176991;28;20055;-60
2022/02/05 03:25:39;;;;;;;13.60;2.95;;;16.20;66.60;;;;;;4177238;28;20055;-60
2022/02/05 03:28:02;;;;;;;9.80;2.38;;;16.20;65.80;;;;;;4177136;28;20122;-60
2022/02/05 03:30:26;;;;;;;10.70;1.80;;;16.10;65.90;;;;;;4177362;28;20136;-60
2022/02/05 03:32:48;;;;;;;12.70;2.13;;;16.10;66.10;;;;;;4176769;28;20053;-60
2022/02/05 03:35:11;;;;;;;9.68;1.77;;;16.00;66.40;;;;;;4177344;28;20110;-60
2022/02/05 03:37:33;;;;;;;7.50;1.90;;;16.00;67.50;;;;;;4176152;28;20056;-60
2022/02/05 03:39:56;;;;;;;10.40;2.22;;;16.00;66.60;;;;;;4177241;28;20095;-60
2022/02/05 03:42:18;;;;;;;10.85;2.42;;;16.00;66.60;;;;;;4176484;28;20072;-60
2022/02/05 03:44:40;;;;;;;7.18;2.05;;;16.00;66.60;;;;;;4176584;28;20084;-60
2022/02/05 03:47:04;;;;;;;11.57;1.70;;;16.00;66.70;;;;;;4176854;28;20464;-60
2022/02/05 03:49:26;;;;;;;10.55;2.20;;;15.90;66.70;;;;;;4176557;28;20045;-62
2022/02/05 03:51:50;;;;;;;13.32;2.58;;;15.90;66.90;;;;;;4175838;28;20523;-62
2022/02/05 03:54:12;;;;;;;9.68;2.65;;;15.90;67.00;;;;;;4175435;28;20071;-64
2022/02/05 03:56:34;;;;;;;21.98;3.63;;;15.90;67.10;;;;;;4175199;28;20056;-62
2022/02/05 03:58:56;;;;;;;12.60;3.13;;;15.90;67.20;;;;;;4176203;28;20389;-61
2022/02/05 04:01:18;;;;;;;10.35;2.35;;;15.90;67.10;;;;;;4176329;28;20102;-61
2022/02/05 04:03:42;;;;;;;10.15;1.90;;;16.00;66.80;;;;;;4155790;28;20057;-60
2022/02/05 04:06:04;;;;;;;12.52;2.65;;;16.10;66.40;;;;;;4159577;28;20057;-60
2022/02/05 04:08:26;;;;;;;9.32;1.85;;;16.20;65.90;;;;;;4176384;28;20055;-60
2022/02/05 04:10:59;;;;;;;7.15;2.20;;;16.20;65.70;;;;;;4176365;28;20115;-60
2022/02/05 04:16:10;;;;;;;14.10;2.72;;;16.20;65.50;;;;;;4176269;28;20052;-60
2022/02/05 04:18:32;;;;;;;17.15;2.90;;;16.20;65.80;;;;;;4175913;28;20431;-60
2022/02/05 04:20:56;;;;;;;6.72;2.20;;;16.20;65.90;;;;;;4176566;28;20049;-60
2022/02/05 04:23:18;;;;;;;7.80;2.03;;;16.10;65.80;;;;;;4175990;28;20135;-60
2022/02/05 04:25:41;;;;;;;10.38;2.10;;;16.10;65.90;;;;;;4176249;28;20060;-59
2022/02/05 04:28:04;;;;;;;9.77;2.50;;;16.10;66.00;;;;;;4176222;28;20059;-60
2022/02/05 04:30:27;;;;;;;8.77;2.17;;;16.10;66.10;;;;;;4176031;28;20060;-60
2022/02/05 04:32:49;;;;;;;10.65;2.28;;;16.00;66.30;;;;;;4175905;28;20069;-60
2022/02/05 04:35:15;;;;;;;8.70;2.08;;;16.00;66.50;;;;;;4176049;28;20056;-60
2022/02/05 04:37:38;;;;;;;11.98;2.25;;;16.00;66.50;;;;;;4175559;28;20049;-60
2022/02/05 04:40:11;;;;;;;8.25;2.05;;;16.00;66.40;;;;;;4175965;28;20055;-60
2022/02/05 04:42:43;;;;;;;8.82;2.38;;;16.00;66.30;;;;;;4175648;28;20044;-60
2022/02/05 04:45:28;;;;;;;10.98;2.40;;;16.00;66.30;;;;;;4159347;28;20508;-60
2022/02/05 04:48:17;;;;;;;10.45;2.10;;;16.00;66.40;;;;;;4160842;28;20469;-60
2022/02/05 04:53:38;;;;;;;7.75;1.70;;;16.00;66.50;;;;;;4211755;27;20414;-59
2022/02/05 04:56:19;;;;;;;7.25;1.85;;;16.10;66.40;;;;;;4223943;27;20043;-58
2022/02/05 04:59:10;;;;;;;6.68;2.03;;;16.10;66.50;;;;;;4223926;27;20048;-60
2022/02/05 05:01:47;;;;;;;;;;;16.10;66.50;;;;;;4209032;27;20056;-58
2022/02/05 05:04:21;;;;;;;9.13;2.22;;;16.20;66.40;;;;;;4209366;27;19931;-61
2022/02/05 05:07:47;;;;;;;12.90;2.90;;;16.20;66.00;;;;;;4206674;27;20750;-58
2022/02/05 05:09:44;;;;;;;11.43;2.20;;;16.30;65.70;;;;;;4206512;27;20493;-61
2022/02/05 05:12:21;;;;;;;11.00;1.85;;;16.30;65.50;;;;;;4206643;28;20498;-61
2022/02/05 05:20:04;;;;;;;8.20;2.42;;;16.30;66.70;;;;;;4223511;27;20529;-60
2022/02/05 05:22:26;;;;;;;6.47;2.05;;;16.20;65.90;;;;;;4223433;27;20501;-61
2022/02/05 05:24:50;;;;;;;12.55;2.80;;;16.10;66.00;;;;;;4223661;27;20051;-61
2022/02/05 05:27:12;;;;;;;7.97;2.15;;;16.10;66.30;;;;;;4223295;27;20047;-60
2022/02/05 05:29:34;;;;;;;8.82;2.00;;;16.10;66.30;;;;;;4213135;27;20059;-60
2022/02/05 05:31:56;;;;;;;8.13;1.80;;;16.10;66.50;;;;;;4206310;27;20044;-61
2022/02/05 05:34:18;;;;;;;8.63;2.35;;;16.10;66.60;;;;;;4206439;27;20052;-60
2022/02/05 05:36:41;;;;;;;6.25;2.13;;;16.00;66.60;;;;;;4206196;27;20048;-60
2022/02/05 05:39:04;;;;;;;7.30;2.05;;;15.90;66.70;;;;;;4206084;27;20048;-61
2022/02/05 05:41:29;;;;;;;10.45;2.35;;;15.90;67.00;;;;;;4205945;27;20080;-60
2022/02/05 05:44:04;;;;;;;7.50;1.95;;;15.90;67.50;;;;;;4205602;27;20126;-59
2022/02/05 05:46:32;;;;;;;8.63;2.10;;;15.90;67.60;;;;;;4203586;27;20131;-60
2022/02/05 05:49:09;;;;;;;9.70;2.08;;;16.00;67.30;;;;;;4189307;28;20503;-61
2022/02/05 05:51:31;;;;;;;9.52;1.70;;;16.10;66.90;;;;;;4188670;28;20048;-60
2022/02/05 05:53:53;;;;;;;7.25;1.70;;;16.10;66.50;;;;;;4189220;28;20132;-61
2022/02/05 05:56:18;;;;;;;9.75;2.22;;;16.20;66.30;;;;;;4192137;28;20075;-60
2022/02/05 05:58:42;;;;;;;11.20;3.13;;;16.10;66.20;;;;;;4205889;28;20044;-59
2022/02/05 06:01:04;;;;;;;11.52;1.95;;;16.10;66.30;;;;;;4205748;28;20154;-60
2022/02/05 06:03:27;;;;;;;7.53;1.65;;;16.10;66.50;;;;;;4201380;28;20045;-60
2022/02/05 06:05:49;;;;;;;11.27;1.80;;;16.00;66.50;;;;;;4193012;28;20127;-60
2022/02/05 06:08:11;;;;;;;4.72;1.58;;;16.00;66.70;;;;;;4177925;28;20048;-60
2022/02/05 06:10:34;;;;;;;8.57;1.65;;;16.00;67.00;;;;;;4179106;28;20110;-61
2022/02/05 06:12:56;;;;;;;4.75;1.67;;;15.90;67.20;;;;;;4178261;28;20136;-60
2022/02/05 06:15:20;;;;;;;9.05;2.28;;;16.00;67.20;;;;;;4176214;28;20187;-60
2022/02/05 06:17:42;;;;;;;5.50;1.63;;;16.00;67.90;;;;;;4178101;28;20147;-60
2022/02/05 06:20:06;;;;;;;11.32;2.00;;;16.00;66.90;;;;;;4177912;28;20071;-60
2022/02/05 06:22:28;;;;;;;10.65;2.10;;;16.00;66.80;;;;;;4177505;28;20500;-60
2022/02/05 06:24:51;;;;;;;8.00;2.00;;;16.00;67.80;;;;;;4176412;28;20053;-59
2022/02/05 06:27:12;;;;;;;8.95;1.70;;;16.00;67.00;;;;;;4189521;28;20056;-60
2022/02/05 06:29:35;;;;;;;8.30;1.95;;;16.00;67.10;;;;;;4177802;28;20562;-60
2022/02/05 06:31:58;;;;;;;6.30;1.83;;;16.00;67.30;;;;;;4177946;28;20079;-60
2022/02/05 06:34:20;;;;;;;9.18;1.67;;;16.10;67.00;;;;;;4177936;28;20041;-60
2022/02/05 06:36:42;;;;;;;11.23;2.08;;;16.20;66.60;;;;;;4188979;28;20055;-60
2022/02/05 06:39:05;;;;;;;9.52;1.90;;;16.30;66.20;;;;;;4194521;28;20118;-60
2022/02/05 06:41:27;;;;;;;10.18;2.10;;;16.40;65.90;;;;;;4193231;28;20044;-60
2022/02/05 06:43:49;;;;;;;9.57;2.78;;;16.40;65.70;;;;;;4192463;28;20079;-60
2022/02/05 06:46:11;;;;;;;11.77;2.30;;;16.40;65.60;;;;;;4187511;28;20558;-60
2022/02/05 06:48:36;;;;;;;9.82;2.10;;;16.30;65.60;;;;;;4177456;28;20159;-60
2022/02/05 06:50:58;;;;;;;11.52;2.45;;;16.30;65.80;;;;;;4177638;28;20072;-60
2022/02/05 06:53:21;;;;;;;8.25;2.17;;;16.20;65.90;;;;;;4177383;28;20053;-60
2022/02/05 06:55:43;;;;;;;8.63;1.95;;;16.20;66.10;;;;;;4182110;28;20703;-60
2022/02/05 06:58:06;;;;;;;9.63;1.98;;;16.20;66.10;;;;;;4193855;28;20053;-60
2022/02/05 07:00:28;;;;;;;8.82;2.13;;;16.10;66.20;;;;;;4192196;28;20391;-60
2022/02/05 07:02:51;;;;;;;8.90;2.42;;;16.10;66.40;;;;;;4193924;28;20052;-59
2022/02/05 07:05:14;;;;;;;7.97;2.00;;;16.00;66.60;;;;;;4179065;28;20069;-60
2022/02/05 07:07:36;;;;;;;12.43;2.08;;;15.90;66.80;;;;;;4176771;28;20516;-60
2022/02/05 07:09:59;;;;;;;8.63;1.63;;;15.90;67.50;;;;;;4186978;28;20037;-60
2022/02/05 07:12:21;;;;;;;8.27;2.30;;;15.90;68.00;;;;;;4193735;28;20051;-60
2022/02/05 07:14:56;;;;;;;9.10;1.95;;;15.90;67.70;;;;;;4182807;28;20484;-60
2022/02/05 07:17:24;;;;;;;11.98;2.85;;;15.90;67.50;;;;;;4177638;28;20110;-60
2022/02/05 07:19:59;;;;;;;7.90;1.80;;;15.80;67.50;;;;;;4177022;28;20049;-59
2022/02/05 07:22:25;;;;;;;9.02;1.90;;;15.80;67.70;;;;;;4176854;28;20529;-60
2022/02/05 07:24:59;;;;;;;20.50;2.88;;;15.80;67.80;;;;;;4177176;28;20045;-60
2022/02/05 07:30:01;;;;;;;7.40;1.77;;;15.80;68.00;;;;;;4190007;28;20049;-60
2022/02/05 07:32:43;;;;;;;9.68;2.65;;;15.70;67.80;;;;;;4193262;28;20041;-60
2022/02/05 07:35:06;;;;;;;9.50;2.03;;;15.80;68.20;;;;;;4177643;28;20045;-60
2022/02/05 07:37:30;;;;;;;8.80;2.33;;;15.80;68.20;;;;;;4175722;28;20049;-60
2022/02/05 07:39:52;;;;;;;9.00;2.42;;;15.80;68.10;;;;;;4176224;28;20049;-60
2022/02/05 07:42:15;;;;;;;10.50;2.53;;;15.80;68.00;;;;;;4176841;28;20132;-60
2022/02/05 07:44:37;;;;;;;10.93;1.80;;;15.80;67.90;;;;;;4187921;28;20079;-60
2022/02/05 07:47:01;;;;;;;9.60;2.15;;;15.80;68.00;;;;;;4193227;28;20102;-59
2022/02/05 07:49:23;;;;;;;9.57;1.73;;;15.80;68.00;;;;;;4182911;28;20052;-60
2022/02/05 07:51:46;;;;;;;8.90;1.75;;;15.90;67.40;;;;;;4176283;28;20048;-60
2022/02/05 07:54:11;;;;;;;12.98;2.05;;;15.90;66.70;;;;;;4185416;28;20048;-60
2022/02/05 07:56:33;;;;;;;12.18;2.47;;;16.00;66.20;;;;;;4193035;28;20075;-60
2022/02/05 07:58:56;;;;;;;8.85;1.58;;;16.10;65.40;;;;;;4193200;28;20068;-60
2022/02/05 08:01:18;;;;;;;12.43;2.20;;;16.10;65.60;;;;;;4176648;28;20057;-60
2022/02/05 08:03:40;;;;;;;8.52;2.10;;;16.30;63.80;;;;;;4177501;28;20484;-60
2022/02/05 08:06:05;;;;;;;13.18;2.70;;;16.30;63.10;;;;;;4176234;28;20041;-60
2022/02/05 08:08:32;;;;;;;10.52;1.58;;;16.40;62.60;;;;;;4181032;28;20435;-60
2022/02/05 08:10:58;;;;;;;9.85;1.60;;;16.40;62.30;;;;;;4188972;28;20143;-60
2022/02/05 08:13:21;;;;;;;7.60;1.90;;;16.40;61.40;;;;;;4181233;28;20048;-60
2022/02/05 08:15:50;;;;;;;5.95;1.48;;;16.50;60.50;;;;;;4190889;28;20094;-60
2022/02/05 08:18:13;;;;;;;6.88;1.00;;;16.60;59.70;;;;;;4190011;28;20052;-60
2022/02/05 08:20:34;;;;;;;11.70;1.58;;;16.70;59.10;;;;;;4193017;28;20051;-60
2022/02/05 08:22:57;;;;;;;8.02;1.33;;;16.70;58.30;;;;;;4190118;28;20478;-60
2022/02/05 08:25:19;;;;;;;6.18;1.83;;;16.70;57.80;;;;;;4192651;28;20040;-61
2022/02/05 08:27:43;;;;;;;7.35;1.52;;;16.70;57.70;;;;;;4176917;28;20053;-61
2022/02/05 08:30:09;;;;;;;9.65;1.85;;;16.60;57.50;;;;;;4165500;28;20451;-61
2022/02/05 08:32:32;;;;;;;8.52;1.83;;;16.60;57.50;;;;;;4176358;28;20053;-61
2022/02/05 08:34:56;;;;;;;7.22;2.08;;;16.50;57.60;;;;;;4173448;28;20103;-61
2022/02/05 08:37:19;;;;;;;6.03;1.90;;;16.40;57.90;;;;;;4172625;28;20114;-61
2022/02/05 08:39:42;;;;;;;11.23;1.80;;;16.30;58.00;;;;;;4185770;28;20444;-61
2022/02/05 08:42:05;;;;;;;7.95;1.90;;;16.20;58.20;;;;;;4176189;28;20480;-61
2022/02/05 08:44:28;;;;;;;10.07;1.85;;;16.10;58.40;;;;;;4177765;28;20052;-60
2022/02/05 08:46:50;;;;;;;6.60;2.30;;;16.00;58.50;;;;;;4175312;28;20144;-60
2022/02/05 08:49:12;;;;;;;6.03;2.15;;;15.90;58.50;;;;;;4174534;28;20138;-60
2022/02/05 08:51:35;;;;;;;11.85;1.75;;;15.90;58.70;;;;;;4175605;28;20053;-60
2022/02/05 08:53:58;;;;;;;7.93;1.95;;;15.90;58.60;;;;;;4179297;28;20041;-60
2022/02/05 08:56:22;;;;;;;15.60;3.55;;;15.90;58.40;;;;;;4192596;28;20094;-60
2022/02/05 08:58:45;;;;;;;9.30;1.85;;;15.90;58.10;;;;;;4192599;28;20569;-60
2022/02/05 09:01:14;;;;;;;14.25;2.22;;;15.90;58.10;;;;;;4176755;28;20049;-60
2022/02/05 09:03:42;;;;;;;7.47;2.05;;;16.00;57.80;;;;;;4182759;28;20059;-59
2022/02/05 09:06:05;;;;;;;12.30;2.13;;;16.00;57.40;;;;;;4177300;28;20052;-59
2022/02/05 09:08:31;;;;;;;9.88;1.70;;;16.00;57.10;;;;;;4202742;28;20055;-60
2022/02/05 09:11:02;;;;;;;14.90;2.70;;;16.00;56.90;;;;;;4174932;28;20052;-60
2022/02/05 09:13:55;;;;;;;9.65;2.15;;;16.00;56.90;;;;;;4175634;28;20056;-60
2022/02/05 09:16:19;;;;;;;7.80;2.22;;;15.90;57.00;;;;;;4177718;28;20048;-65
2022/02/05 09:18:43;;;;;;;11.93;1.92;;;15.90;57.30;;;;;;4191904;28;20045;-61
2022/02/05 09:21:06;;;;;;;10.70;2.38;;;15.90;57.40;;;;;;4192147;28;20045;-65
2022/02/05 09:23:28;;;;;;;6.03;1.77;;;15.80;57.10;;;;;;4192021;28;20062;-61
2022/02/05 09:25:50;;;;;;;6.35;1.38;;;15.70;57.20;;;;;;4190014;28;20458;-61
2022/02/05 09:28:13;;;;;;;7.75;2.00;;;15.70;57.30;;;;;;4176524;28;20053;-61
2022/02/05 09:30:46;;;;;;;2.15;1.23;;;15.70;57.10;;;;;;4187823;28;20056;-60
2022/02/05 09:33:10;;;;;;;8.70;1.92;;;15.70;57.00;;;;;;4186033;28;20159;-60
2022/02/05 09:35:32;;;;;;;4.97;1.08;;;15.70;56.80;;;;;;4185137;28;20040;-60
2022/02/05 09:37:54;;;;;;;5.97;1.40;;;15.60;56.70;;;;;;4192255;28;20052;-60
2022/02/05 09:40:16;;;;;;;9.85;2.13;;;15.60;56.60;;;;;;4191747;28;20102;-60
2022/02/05 09:42:44;;;;;;;9.82;1.55;;;15.60;56.70;;;;;;4178394;28;20060;-60
2022/02/05 09:45:08;;;;;;;7.30;1.80;;;15.50;56.60;;;;;;4175597;28;20057;-60
2022/02/05 09:47:30;;;;;;;16.85;2.90;;;15.50;56.80;;;;;;4182618;28;20106;-60
2022/02/05 09:49:53;;;;;;;8.55;2.35;;;15.50;56.80;;;;;;4187056;28;20048;-60
2022/02/05 09:52:25;;;;;;;10.40;2.15;;;15.50;56.80;;;;;;4178367;28;20122;-60
2022/02/05 09:54:47;;;;;;;8.45;1.85;;;15.50;56.80;;;;;;4180571;28;20037;-60
2022/02/05 09:57:11;;;;;;;13.82;2.40;;;15.60;56.50;;;;;;4181284;28;20041;-60
2022/02/05 09:59:39;;;;;;;9.00;1.95;;;15.70;56.00;;;;;;4178667;28;20135;-60
2022/02/05 10:02:22;;;;;;;5.50;1.50;;;15.80;55.70;;;;;;4182314;28;20059;-60
2022/02/05 10:05:03;;;;;;;13.07;2.47;;;15.90;55.40;;;;;;4194646;28;20056;-60
2022/02/05 10:07:54;;;;;;;9.63;1.98;;;15.90;55.20;;;;;;4194361;28;20427;-61
2022/02/05 10:10:16;;;;;;;11.18;2.13;;;16.00;55.20;;;;;;4193890;28;20106;-60
2022/02/05 10:12:40;;;;;;;15.32;3.17;;;16.10;54.90;;;;;;4194465;28;20381;-60
2022/02/05 10:15:03;;;;;;;13.77;2.42;;;16.40;54.40;;;;;;4193039;28;20055;-60
2022/02/05 10:17:40;;;;;;;12.52;2.70;;;16.70;53.70;;;;;;4194830;28;20049;-62
2022/02/05 10:20:05;;;;;;;9.05;2.38;;;17.00;53.00;;;;;;4194168;28;20127;-65
2022/02/05 10:22:36;;;;;;;9.27;1.92;;;17.30;52.30;;;;;;4188651;28;20075;-62
2022/02/05 10:25:00;;;;;;;11.73;2.30;;;17.50;51.80;;;;;;4177653;28;20076;-61
2022/02/05 10:27:29;;;;;;;6.97;2.03;;;17.70;51.30;;;;;;4198003;28;20049;-61
2022/02/05 10:30:08;;;;;;;8.57;2.63;;;17.80;51.10;;;;;;4181778;28;20514;-61
2022/02/05 10:32:31;;;;;;;2.67;1.70;;;17.80;51.00;;;;;;4177342;28;20153;-61
2022/02/05 10:35:00;;;;;;;6.63;2.17;;;17.70;51.00;;;;;;4189048;28;20064;-61
2022/02/05 10:37:29;;;;;;;10.38;2.65;;;17.60;51.10;;;;;;4181211;28;20045;-61
2022/02/05 10:40:09;;;;;;;9.65;2.28;;;17.50;51.30;;;;;;4177847;28;20489;-61
2022/02/05 10:45:12;;;;;;;11.50;1.70;;;17.40;51.50;;;;;;4178555;28;20057;-61
2022/02/05 10:47:53;;;;;;;6.40;1.67;;;17.30;51.60;;;;;;4180886;28;20052;-60
2022/02/05 10:50:19;;;;;;;7.60;1.67;;;17.20;51.90;;;;;;4190902;28;20056;-61
2022/02/05 10:52:50;;;;;;;11.80;2.20;;;17.20;52.00;;;;;;4193558;28;20407;-60
2022/02/05 10:55:21;;;;;;;2.97;0.95;;;17.20;52.10;;;;;;4193535;28;20468;-60
2022/02/05 10:58:08;;;;;;;6.57;1.50;;;17.20;52.00;;;;;;4189063;28;20554;-60
2022/02/05 11:05:53;;;;;;;11.00;1.42;;;17.40;51.40;;;;;;4193457;28;20049;-60
2022/02/05 11:08:18;;;;;;;10.38;2.25;;;17.50;51.10;;;;;;4193640;28;20544;-60
2022/02/05 11:18:56;;;;;;;6.20;2.00;;;17.80;50.60;;;;;;4176942;28;20041;-60
2022/02/05 11:21:40;;;;;;;9.10;2.22;;;17.80;50.40;;;;;;4176973;28;20059;-60
2022/02/05 11:24:06;;;;;;;9.20;1.65;;;17.80;50.30;;;;;;4177324;28;20495;-60
2022/02/05 11:26:29;;;;;;;9.30;2.47;;;17.80;50.40;;;;;;4177036;28;20056;-60
2022/02/05 11:28:52;;;;;;;6.45;1.85;;;17.80;50.50;;;;;;4189309;28;20044;-60
2022/02/05 11:31:17;;;;;;;14.43;2.30;;;17.80;50.50;;;;;;4193861;28;20056;-60
2022/02/05 11:33:40;;;;;;;2.83;1.15;;;17.80;50.20;;;;;;4190846;28;20040;-61
2022/02/05 11:36:39;;;;;;;8.18;1.98;;;17.90;49.80;;;;;;4191230;28;20527;-60
2022/02/05 11:39:04;;;;;;;10.15;2.10;;;18.00;49.50;;;;;;4192768;28;20048;-58
2022/02/05 11:41:28;;;;;;;3.53;1.15;;;18.00;49.50;;;;;;4193317;28;20072;-59
2022/02/05 11:44:14;;;;;;;3.58;0.95;;;17.90;49.50;;;;;;4190906;28;20439;-58
2022/02/05 11:46:36;;;;;;;5.97;2.03;;;17.80;49.60;;;;;;4176533;28;20060;-57
2022/02/05 11:49:00;;;;;;;4.72;1.42;;;17.80;49.60;;;;;;4176560;28;20358;-58
2022/02/05 11:51:24;;;;;;;4.60;1.50;;;17.80;49.70;;;;;;4176436;28;20056;-59
2022/02/05 11:54:20;;;;;;;4.45;1.60;;;17.80;49.60;;;;;;4161237;28;20099;-58
2022/02/05 11:56:52;;;;;;;6.95;1.58;;;17.80;49.60;;;;;;4176073;28;20476;-59
2022/02/05 11:59:15;;;;;;;9.05;1.42;;;17.80;49.60;;;;;;4176238;28;20110;-58
2022/02/05 12:01:39;;;;;;;6.22;1.70;;;17.70;49.50;;;;;;4177082;28;20056;-59
2022/02/05 12:04:11;;;;;;;6.88;1.60;;;17.70;49.60;;;;;;4176746;28;20114;-59
2022/02/05 12:06:46;;;;;;;8.35;1.83;;;17.70;49.50;;;;;;4176282;28;20480;-58
2022/02/05 12:09:34;;;;;;;8.38;2.75;;;17.70;49.40;;;;;;4174530;28;20041;-59
2022/02/05 12:11:57;;;;;;;4.97;2.22;;;17.70;49.50;;;;;;4176999;28;20122;-59
2022/02/05 12:14:19;;;;;;;4.95;1.75;;;17.70;49.50;;;;;;4185075;28;20510;-59
2022/02/05 12:17:06;;;;;;;7.38;2.08;;;17.70;49.50;;;;;;4178214;28;20051;-59
2022/02/05 12:19:29;;;;;;;6.22;1.42;;;17.70;49.40;;;;;;4175942;28;20134;-58
2022/02/05 12:21:55;;;;;;;7.97;2.13;;;17.70;50.00;;;;;;4176052;28;20121;-60
2022/02/05 12:24:35;;;;;;;5.13;1.33;;;17.60;50.50;;;;;;4176962;28;20542;-59
2022/02/05 12:26:59;;;;;;;10.20;1.90;;;17.70;50.80;;;;;;4186983;28;20479;-59
2022/02/05 12:29:29;;;;;;;8.10;1.90;;;17.70;50.40;;;;;;4176160;28;20099;-59
2022/02/05 12:31:52;;;;;;;6.43;1.33;;;17.70;50.00;;;;;;4175920;28;20072;-59
2022/02/05 12:34:15;;;;;;;5.68;1.40;;;17.70;49.90;;;;;;4174549;28;20283;-58
2022/02/05 12:36:40;;;;;;;10.68;2.30;;;17.70;49.70;;;;;;4180476;28;20544;-59
2022/02/05 12:39:07;;;;;;;6.88;1.65;;;17.70;49.60;;;;;;4159381;28;20049;-59
2022/02/05 12:41:31;;;;;;;6.70;1.77;;;17.60;49.50;;;;;;4158844;28;20091;-59
2022/02/05 12:43:56;;;;;;;4.43;1.52;;;17.60;49.60;;;;;;4185145;28;20051;-60
2022/02/05 12:46:19;;;;;;;6.60;2.10;;;17.60;49.70;;;;;;4192344;28;20055;-58
2022/02/05 12:48:46;;;;;;;6.30;1.50;;;17.50;49.90;;;;;;4191479;28;20133;-59
2022/02/05 12:51:08;;;;;;;9.25;1.35;;;17.40;50.10;;;;;;4191484;28;20048;-59
2022/02/05 12:53:32;;;;;;;5.70;1.40;;;17.30;50.40;;;;;;4192396;28;20056;-59
2022/02/05 12:55:54;;;;;;;6.82;1.50;;;17.20;50.50;;;;;;4192395;28;20441;-59
2022/02/05 12:58:19;;;;;;;7.72;2.00;;;17.20;50.50;;;;;;4190580;28;20070;-59
2022/02/05 13:00:41;;;;;;;4.07;0.80;;;17.20;50.30;;;;;;4192138;28;20052;-59
2022/02/05 13:03:18;;;;;;;5.28;1.63;;;17.20;50.10;;;;;;4192110;28;20048;-58
2022/02/05 13:05:41;;;;;;;6.43;1.88;;;17.30;50.00;;;;;;4192371;28;20044;-59
2022/02/05 13:08:03;;;;;;;5.00;1.42;;;17.20;49.90;;;;;;4190480;28;20051;-59
2022/02/05 13:10:26;;;;;;;5.95;1.08;;;17.20;49.80;;;;;;4191774;28;20131;-59
2022/02/05 13:12:51;;;;;;;7.28;1.33;;;17.20;49.70;;;;;;4192114;28;20052;-59
2022/02/05 13:15:22;;;;;;;3.15;0.93;;;17.20;49.80;;;;;;4195245;28;20044;-59
2022/02/05 13:18:03;;;;;;;7.13;1.27;;;17.10;49.90;;;;;;4187733;28;20428;-58
2022/02/05 13:25:53;;;;;;;4.65;1.25;;;17.10;50.10;;;;;;4195301;28;20414;-60
2022/02/05 13:28:35;;;;;;;9.32;1.33;;;17.10;49.80;;;;;;4191402;28;20052;-63
2022/02/05 13:34:00;;;;;;;;;;;17.10;49.50;;;;;;4178560;28;20057;-58
2022/02/05 13:36:37;;;;;;;7.70;1.55;;;17.10;49.50;;;;;;4183332;28;19931;-58
2022/02/05 13:39:11;;;;;;;3.17;1.23;;;17.20;49.60;;;;;;4176414;28;20060;-58
2022/02/05 13:41:39;;;;;;;5.68;1.73;;;17.20;49.40;;;;;;4190824;28;20626;-59
2022/02/05 13:44:01;;;;;;;6.32;1.85;;;17.20;49.70;;;;;;4191404;28;20052;-58
2022/02/05 13:46:25;;;;;;;5.75;1.60;;;17.20;50.10;;;;;;4189803;28;20103;-59
2022/02/05 13:48:48;;;;;;;6.43;1.27;;;17.20;50.60;;;;;;4178000;28;20102;-59
2022/02/05 13:51:11;;;;;;;10.25;2.25;;;17.20;50.70;;;;;;4180149;28;20227;-59
2022/02/05 13:53:34;;;;;;;5.30;1.00;;;17.10;50.70;;;;;;4178458;28;20421;-59
2022/02/05 13:55:56;;;;;;;5.15;2.03;;;17.10;50.90;;;;;;4181975;28;20102;-59
2022/02/05 13:58:19;;;;;;;7.30;1.88;;;17.00;51.00;;;;;;4180058;28;20048;-58
2022/02/05 14:00:44;;;;;;;12.80;2.85;;;17.00;51.10;;;;;;4180909;28;20099;-57
2022/02/05 14:03:08;;;;;;;8.65;2.13;;;17.00;51.00;;;;;;4177914;28;20045;-59
2022/02/05 14:05:31;;;;;;;11.85;2.30;;;17.10;51.70;;;;;;4179725;28;20075;-59
2022/02/05 14:07:53;;;;;;;9.70;2.13;;;17.20;51.80;;;;;;4187009;28;20121;-59
2022/02/05 14:10:16;;;;;;;8.38;2.47;;;17.30;51.70;;;;;;4178563;28;20047;-59
2022/02/05 14:12:47;;;;;;;8.93;2.35;;;17.40;51.60;;;;;;4175852;28;20060;-58
2022/02/05 14:15:10;;;;;;;6.18;2.20;;;17.50;51.50;;;;;;4181815;28;20056;-59